sensor_id;sensor_type;location;lat;lon;timestamp;P1;durP1;ratioP1;P2;durP2;ratioP2
12625;SDS011;6378;42.684;23.372;2023-04-09T00:00:21;20.87;;;15.03;;
12625;SDS011;6378;42.684;23.372;2023-04-09T00:02:46;20.27;;;15.03;;
12625;SDS011;6378;42.684;23.372;2023-04-09T00:05:12;20.67;;;15.00;;
12625;SDS011;6378;42.684;23.372;2023-04-09T00:07:38;21.77;;;15.13;;
12625;SDS011;6378;42.684;23.372;2023-04-09T00:10:03;18.37;;;13.87;;
12625;SDS011;6378;42.684;23.372;2023-04-09T00:12:30;22.90;;;15.80;;
12625;SDS011;6378;42.684;23.372;2023-04-09T00:14:55;20.80;;;15.67;;
12625;SDS011;6378;42.684;23.372;2023-04-09T00:17:21;20.80;;;15.07;;
12625;SDS011;6378;42.684;23.372;2023-04-09T00:19:46;19.47;;;14.80;;
12625;SDS011;6378;42.684;23.372;2023-04-09T00:22:12;19.20;;;14.07;;
12625;SDS011;6378;42.684;23.372;2023-04-09T00:24:37;22.40;;;15.17;;
12625;SDS011;6378;42.684;23.372;2023-04-09T00:27:03;19.73;;;14.67;;
12625;SDS011;6378;42.684;23.372;2023-04-09T00:29:28;22.87;;;15.60;;
12625;SDS011;6378;42.684;23.372;2023-04-09T00:31:54;20.60;;;15.20;;
12625;SDS011;6378;42.684;23.372;2023-04-09T00:34:19;22.67;;;16.00;;
12625;SDS011;6378;42.684;23.372;2023-04-09T00:36:45;19.00;;;14.00;;
12625;SDS011;6378;42.684;23.372;2023-04-09T00:39:10;18.33;;;13.63;;
12625;SDS011;6378;42.684;23.372;2023-04-09T00:41:36;19.60;;;13.77;;
12625;SDS011;6378;42.684;23.372;2023-04-09T00:44:01;20.77;;;14.47;;
12625;SDS011;6378;42.684;23.372;2023-04-09T00:46:26;18.57;;;13.90;;
12625;SDS011;6378;42.684;23.372;2023-04-09T00:48:52;18.00;;;13.47;;
12625;SDS011;6378;42.684;23.372;2023-04-09T00:51:17;16.40;;;12.80;;
12625;SDS011;6378;42.684;23.372;2023-04-09T00:53:43;17.17;;;14.10;;
12625;SDS011;6378;42.684;23.372;2023-04-09T00:56:09;17.80;;;13.27;;
12625;SDS011;6378;42.684;23.372;2023-04-09T00:58:36;17.27;;;12.93;;
12625;SDS011;6378;42.684;23.372;2023-04-09T01:01:01;14.27;;;11.43;;
12625;SDS011;6378;42.684;23.372;2023-04-09T01:03:27;15.03;;;12.20;;
12625;SDS011;6378;42.684;23.372;2023-04-09T01:05:55;14.80;;;11.27;;
12625;SDS011;6378;42.684;23.372;2023-04-09T01:16:28;14.53;;;11.93;;
12625;SDS011;6378;42.684;23.372;2023-04-09T01:18:58;13.90;;;11.50;;
12625;SDS011;6378;42.684;23.372;2023-04-09T01:21:29;15.37;;;11.13;;
12625;SDS011;6378;42.684;23.372;2023-04-09T01:24:15;14.07;;;11.43;;
12625;SDS011;6378;42.684;23.372;2023-04-09T01:26:56;15.83;;;11.93;;
12625;SDS011;6378;42.684;23.372;2023-04-09T01:29:27;15.47;;;11.30;;
12625;SDS011;6378;42.684;23.372;2023-04-09T01:31:56;15.00;;;11.77;;
12625;SDS011;6378;42.684;23.372;2023-04-09T01:34:23;15.80;;;11.33;;
12625;SDS011;6378;42.684;23.372;2023-04-09T01:36:54;13.70;;;10.93;;
12625;SDS011;6378;42.684;23.372;2023-04-09T01:39:22;14.77;;;11.43;;
12625;SDS011;6378;42.684;23.372;2023-04-09T01:41:48;15.93;;;12.23;;
12625;SDS011;6378;42.684;23.372;2023-04-09T01:44:14;16.17;;;11.30;;
12625;SDS011;6378;42.684;23.372;2023-04-09T01:46:40;15.57;;;11.33;;
12625;SDS011;6378;42.684;23.372;2023-04-09T01:49:06;16.40;;;12.37;;
12625;SDS011;6378;42.684;23.372;2023-04-09T01:51:34;16.10;;;11.80;;
12625;SDS011;6378;42.684;23.372;2023-04-09T01:54:19;18.60;;;12.87;;
12625;SDS011;6378;42.684;23.372;2023-04-09T01:56:45;15.90;;;12.77;;
12625;SDS011;6378;42.684;23.372;2023-04-09T01:59:12;17.27;;;13.17;;
12625;SDS011;6378;42.684;23.372;2023-04-09T02:01:45;15.83;;;12.80;;
12625;SDS011;6378;42.684;23.372;2023-04-09T02:04:34;18.03;;;13.03;;
12625;SDS011;6378;42.684;23.372;2023-04-09T02:07:11;15.60;;;11.87;;
12625;SDS011;6378;42.684;23.372;2023-04-09T02:09:49;15.43;;;12.33;;
12625;SDS011;6378;42.684;23.372;2023-04-09T02:12:17;16.23;;;12.23;;
12625;SDS011;6378;42.684;23.372;2023-04-09T02:14:47;19.33;;;13.80;;
12625;SDS011;6378;42.684;23.372;2023-04-09T02:17:16;18.60;;;13.33;;
12625;SDS011;6378;42.684;23.372;2023-04-09T02:19:42;19.73;;;12.13;;
12625;SDS011;6378;42.684;23.372;2023-04-09T02:22:09;15.97;;;12.57;;
12625;SDS011;6378;42.684;23.372;2023-04-09T02:24:36;16.47;;;12.60;;
12625;SDS011;6378;42.684;23.372;2023-04-09T02:27:02;18.07;;;13.37;;
12625;SDS011;6378;42.684;23.372;2023-04-09T02:29:28;18.20;;;12.93;;
12625;SDS011;6378;42.684;23.372;2023-04-09T02:31:54;17.43;;;13.67;;
12625;SDS011;6378;42.684;23.372;2023-04-09T02:34:19;16.37;;;13.23;;
12625;SDS011;6378;42.684;23.372;2023-04-09T02:36:44;19.47;;;13.63;;
12625;SDS011;6378;42.684;23.372;2023-04-09T02:39:10;18.80;;;13.97;;
12625;SDS011;6378;42.684;23.372;2023-04-09T02:41:35;19.17;;;13.40;;
12625;SDS011;6378;42.684;23.372;2023-04-09T02:44:01;19.87;;;14.23;;
12625;SDS011;6378;42.684;23.372;2023-04-09T02:46:26;20.03;;;14.70;;
12625;SDS011;6378;42.684;23.372;2023-04-09T02:48:52;17.70;;;13.77;;
12625;SDS011;6378;42.684;23.372;2023-04-09T02:51:17;17.37;;;13.17;;
12625;SDS011;6378;42.684;23.372;2023-04-09T02:53:43;18.60;;;13.23;;
12625;SDS011;6378;42.684;23.372;2023-04-09T02:56:09;20.20;;;14.50;;
12625;SDS011;6378;42.684;23.372;2023-04-09T02:58:35;19.43;;;14.20;;
12625;SDS011;6378;42.684;23.372;2023-04-09T03:01:00;19.23;;;13.70;;
12625;SDS011;6378;42.684;23.372;2023-04-09T03:03:26;18.53;;;13.60;;
12625;SDS011;6378;42.684;23.372;2023-04-09T03:05:51;18.37;;;12.97;;
12625;SDS011;6378;42.684;23.372;2023-04-09T03:08:16;17.03;;;13.07;;
12625;SDS011;6378;42.684;23.372;2023-04-09T03:10:42;20.43;;;14.27;;
12625;SDS011;6378;42.684;23.372;2023-04-09T03:13:07;16.47;;;13.27;;
12625;SDS011;6378;42.684;23.372;2023-04-09T03:15:33;19.23;;;13.53;;
12625;SDS011;6378;42.684;23.372;2023-04-09T03:17:58;17.70;;;13.07;;
12625;SDS011;6378;42.684;23.372;2023-04-09T03:20:23;18.57;;;14.43;;
12625;SDS011;6378;42.684;23.372;2023-04-09T03:22:49;20.93;;;13.77;;
12625;SDS011;6378;42.684;23.372;2023-04-09T03:25:14;19.13;;;14.00;;
12625;SDS011;6378;42.684;23.372;2023-04-09T03:27:40;19.37;;;13.80;;
12625;SDS011;6378;42.684;23.372;2023-04-09T03:30:05;19.73;;;14.20;;
12625;SDS011;6378;42.684;23.372;2023-04-09T03:32:31;21.73;;;14.50;;
12625;SDS011;6378;42.684;23.372;2023-04-09T03:34:56;19.13;;;14.67;;
12625;SDS011;6378;42.684;23.372;2023-04-09T03:37:22;20.67;;;14.37;;
12625;SDS011;6378;42.684;23.372;2023-04-09T03:39:47;21.03;;;14.87;;
12625;SDS011;6378;42.684;23.372;2023-04-09T03:42:13;21.90;;;14.53;;
12625;SDS011;6378;42.684;23.372;2023-04-09T03:44:38;22.07;;;15.47;;
12625;SDS011;6378;42.684;23.372;2023-04-09T03:47:03;20.87;;;15.30;;
12625;SDS011;6378;42.684;23.372;2023-04-09T03:49:29;22.23;;;15.07;;
12625;SDS011;6378;42.684;23.372;2023-04-09T03:51:54;21.30;;;15.70;;
12625;SDS011;6378;42.684;23.372;2023-04-09T03:54:20;21.60;;;16.10;;
12625;SDS011;6378;42.684;23.372;2023-04-09T03:56:45;23.30;;;16.20;;
12625;SDS011;6378;42.684;23.372;2023-04-09T03:59:11;23.40;;;16.93;;
12625;SDS011;6378;42.684;23.372;2023-04-09T04:01:36;25.93;;;17.60;;
12625;SDS011;6378;42.684;23.372;2023-04-09T04:04:01;23.67;;;15.77;;
12625;SDS011;6378;42.684;23.372;2023-04-09T04:06:27;25.57;;;17.33;;
12625;SDS011;6378;42.684;23.372;2023-04-09T04:08:52;24.90;;;16.73;;
12625;SDS011;6378;42.684;23.372;2023-04-09T04:11:18;27.63;;;17.57;;
12625;SDS011;6378;42.684;23.372;2023-04-09T04:13:43;29.37;;;17.73;;
12625;SDS011;6378;42.684;23.372;2023-04-09T04:16:09;24.20;;;17.27;;
12625;SDS011;6378;42.684;23.372;2023-04-09T04:18:34;26.37;;;17.33;;
12625;SDS011;6378;42.684;23.372;2023-04-09T04:21:00;27.13;;;18.37;;
12625;SDS011;6378;42.684;23.372;2023-04-09T04:23:26;25.83;;;18.40;;
12625;SDS011;6378;42.684;23.372;2023-04-09T04:25:51;28.50;;;18.60;;
12625;SDS011;6378;42.684;23.372;2023-04-09T04:28:17;29.60;;;18.67;;
12625;SDS011;6378;42.684;23.372;2023-04-09T04:30:43;27.87;;;18.70;;
12625;SDS011;6378;42.684;23.372;2023-04-09T04:33:08;30.53;;;18.77;;
12625;SDS011;6378;42.684;23.372;2023-04-09T04:35:34;29.80;;;18.70;;
12625;SDS011;6378;42.684;23.372;2023-04-09T04:37:59;26.23;;;17.77;;
12625;SDS011;6378;42.684;23.372;2023-04-09T04:40:25;27.83;;;18.27;;
12625;SDS011;6378;42.684;23.372;2023-04-09T04:42:51;28.73;;;19.30;;
12625;SDS011;6378;42.684;23.372;2023-04-09T04:45:16;26.73;;;17.70;;
12625;SDS011;6378;42.684;23.372;2023-04-09T04:47:42;30.17;;;17.83;;
12625;SDS011;6378;42.684;23.372;2023-04-09T04:50:07;30.63;;;19.13;;
12625;SDS011;6378;42.684;23.372;2023-04-09T04:52:33;28.50;;;18.37;;
12625;SDS011;6378;42.684;23.372;2023-04-09T04:54:58;30.00;;;18.43;;
12625;SDS011;6378;42.684;23.372;2023-04-09T04:57:24;29.77;;;18.93;;
12625;SDS011;6378;42.684;23.372;2023-04-09T04:59:49;27.87;;;19.40;;
12625;SDS011;6378;42.684;23.372;2023-04-09T05:02:15;28.33;;;18.93;;
12625;SDS011;6378;42.684;23.372;2023-04-09T05:04:40;27.63;;;17.80;;
12625;SDS011;6378;42.684;23.372;2023-04-09T05:07:05;30.27;;;18.70;;
12625;SDS011;6378;42.684;23.372;2023-04-09T05:09:31;30.63;;;20.50;;
12625;SDS011;6378;42.684;23.372;2023-04-09T05:11:56;31.87;;;19.33;;
12625;SDS011;6378;42.684;23.372;2023-04-09T05:14:22;29.63;;;19.90;;
12625;SDS011;6378;42.684;23.372;2023-04-09T05:16:48;29.10;;;18.57;;
12625;SDS011;6378;42.684;23.372;2023-04-09T05:19:13;27.27;;;18.03;;
12625;SDS011;6378;42.684;23.372;2023-04-09T05:21:39;24.17;;;15.80;;
12625;SDS011;6378;42.684;23.372;2023-04-09T05:24:05;26.60;;;17.37;;
12625;SDS011;6378;42.684;23.372;2023-04-09T05:26:31;26.43;;;17.37;;
12625;SDS011;6378;42.684;23.372;2023-04-09T05:28:57;24.03;;;15.53;;
12625;SDS011;6378;42.684;23.372;2023-04-09T05:31:22;23.60;;;15.97;;
12625;SDS011;6378;42.684;23.372;2023-04-09T05:33:48;28.37;;;16.63;;
12625;SDS011;6378;42.684;23.372;2023-04-09T05:36:14;24.43;;;16.33;;
12625;SDS011;6378;42.684;23.372;2023-04-09T05:38:41;25.30;;;16.63;;
12625;SDS011;6378;42.684;23.372;2023-04-09T05:41:07;23.27;;;15.73;;
12625;SDS011;6378;42.684;23.372;2023-04-09T05:43:32;23.90;;;15.17;;
12625;SDS011;6378;42.684;23.372;2023-04-09T05:45:57;43.03;;;25.30;;
12625;SDS011;6378;42.684;23.372;2023-04-09T05:48:23;23.03;;;15.33;;
12625;SDS011;6378;42.684;23.372;2023-04-09T05:50:51;19.77;;;13.63;;
12625;SDS011;6378;42.684;23.372;2023-04-09T05:53:20;23.20;;;14.50;;
12625;SDS011;6378;42.684;23.372;2023-04-09T05:55:46;23.40;;;14.50;;
12625;SDS011;6378;42.684;23.372;2023-04-09T05:58:16;24.30;;;15.80;;
12625;SDS011;6378;42.684;23.372;2023-04-09T06:00:45;21.30;;;12.70;;
12625;SDS011;6378;42.684;23.372;2023-04-09T06:03:11;21.87;;;14.20;;
12625;SDS011;6378;42.684;23.372;2023-04-09T06:05:36;23.43;;;15.37;;
12625;SDS011;6378;42.684;23.372;2023-04-09T06:08:02;20.80;;;14.80;;
12625;SDS011;6378;42.684;23.372;2023-04-09T06:10:27;24.67;;;14.83;;
12625;SDS011;6378;42.684;23.372;2023-04-09T06:12:53;23.70;;;14.73;;
12625;SDS011;6378;42.684;23.372;2023-04-09T06:15:19;21.57;;;14.10;;
12625;SDS011;6378;42.684;23.372;2023-04-09T06:17:44;20.93;;;14.43;;
12625;SDS011;6378;42.684;23.372;2023-04-09T06:20:10;20.97;;;14.07;;
12625;SDS011;6378;42.684;23.372;2023-04-09T06:22:35;21.53;;;13.77;;
12625;SDS011;6378;42.684;23.372;2023-04-09T06:25:01;21.20;;;14.30;;
12625;SDS011;6378;42.684;23.372;2023-04-09T06:27:26;20.00;;;14.20;;
12625;SDS011;6378;42.684;23.372;2023-04-09T06:29:52;19.43;;;13.57;;
12625;SDS011;6378;42.684;23.372;2023-04-09T06:32:17;21.07;;;14.53;;
12625;SDS011;6378;42.684;23.372;2023-04-09T06:34:43;18.97;;;12.87;;
12625;SDS011;6378;42.684;23.372;2023-04-09T06:37:08;21.17;;;15.00;;
12625;SDS011;6378;42.684;23.372;2023-04-09T06:39:33;12.63;;;9.60;;
12625;SDS011;6378;42.684;23.372;2023-04-09T06:41:59;18.50;;;12.80;;
12625;SDS011;6378;42.684;23.372;2023-04-09T06:44:25;16.77;;;11.83;;
12625;SDS011;6378;42.684;23.372;2023-04-09T06:46:50;21.33;;;14.77;;
12625;SDS011;6378;42.684;23.372;2023-04-09T06:49:15;19.07;;;14.13;;
12625;SDS011;6378;42.684;23.372;2023-04-09T06:51:41;21.20;;;13.43;;
12625;SDS011;6378;42.684;23.372;2023-04-09T06:54:06;19.47;;;13.57;;
12625;SDS011;6378;42.684;23.372;2023-04-09T06:56:32;17.57;;;12.27;;
12625;SDS011;6378;42.684;23.372;2023-04-09T06:58:58;18.37;;;13.50;;
12625;SDS011;6378;42.684;23.372;2023-04-09T07:01:23;12.90;;;9.77;;
12625;SDS011;6378;42.684;23.372;2023-04-09T07:03:50;17.57;;;12.43;;
12625;SDS011;6378;42.684;23.372;2023-04-09T07:06:15;10.93;;;7.50;;
12625;SDS011;6378;42.684;23.372;2023-04-09T07:08:41;15.63;;;11.20;;
12625;SDS011;6378;42.684;23.372;2023-04-09T07:11:06;11.50;;;7.47;;
12625;SDS011;6378;42.684;23.372;2023-04-09T07:13:32;18.80;;;12.07;;
12625;SDS011;6378;42.684;23.372;2023-04-09T07:15:57;18.30;;;12.37;;
12625;SDS011;6378;42.684;23.372;2023-04-09T07:18:23;19.20;;;12.20;;
12625;SDS011;6378;42.684;23.372;2023-04-09T07:20:48;13.30;;;8.90;;
12625;SDS011;6378;42.684;23.372;2023-04-09T07:23:14;17.07;;;12.00;;
12625;SDS011;6378;42.684;23.372;2023-04-09T07:25:40;16.73;;;11.53;;
12625;SDS011;6378;42.684;23.372;2023-04-09T07:28:06;16.70;;;10.93;;
12625;SDS011;6378;42.684;23.372;2023-04-09T07:33:15;17.97;;;12.13;;
12625;SDS011;6378;42.684;23.372;2023-04-09T07:35:41;17.67;;;11.40;;
12625;SDS011;6378;42.684;23.372;2023-04-09T07:38:06;15.10;;;10.53;;
12625;SDS011;6378;42.684;23.372;2023-04-09T07:40:33;16.97;;;11.40;;
12625;SDS011;6378;42.684;23.372;2023-04-09T07:42:58;17.50;;;11.53;;
12625;SDS011;6378;42.684;23.372;2023-04-09T07:45:24;17.07;;;11.07;;
12625;SDS011;6378;42.684;23.372;2023-04-09T07:47:49;15.53;;;10.37;;
12625;SDS011;6378;42.684;23.372;2023-04-09T07:50:15;12.07;;;8.63;;
12625;SDS011;6378;42.684;23.372;2023-04-09T07:52:40;10.87;;;7.60;;
12625;SDS011;6378;42.684;23.372;2023-04-09T07:55:06;15.77;;;11.27;;
12625;SDS011;6378;42.684;23.372;2023-04-09T07:57:32;19.83;;;12.70;;
12625;SDS011;6378;42.684;23.372;2023-04-09T07:59:58;21.37;;;13.80;;
12625;SDS011;6378;42.684;23.372;2023-04-09T08:02:23;14.00;;;10.30;;
12625;SDS011;6378;42.684;23.372;2023-04-09T08:04:49;15.07;;;10.37;;
12625;SDS011;6378;42.684;23.372;2023-04-09T08:07:14;16.40;;;12.27;;
12625;SDS011;6378;42.684;23.372;2023-04-09T08:09:40;13.40;;;9.07;;
12625;SDS011;6378;42.684;23.372;2023-04-09T08:12:05;15.43;;;10.70;;
12625;SDS011;6378;42.684;23.372;2023-04-09T08:14:31;14.93;;;10.87;;
12625;SDS011;6378;42.684;23.372;2023-04-09T08:16:56;15.73;;;11.23;;
12625;SDS011;6378;42.684;23.372;2023-04-09T08:19:22;18.57;;;12.63;;
12625;SDS011;6378;42.684;23.372;2023-04-09T08:21:47;15.80;;;10.13;;
12625;SDS011;6378;42.684;23.372;2023-04-09T08:24:13;16.70;;;11.80;;
12625;SDS011;6378;42.684;23.372;2023-04-09T08:26:40;16.13;;;11.33;;
12625;SDS011;6378;42.684;23.372;2023-04-09T08:29:06;13.83;;;10.53;;
12625;SDS011;6378;42.684;23.372;2023-04-09T08:31:33;14.73;;;11.03;;
12625;SDS011;6378;42.684;23.372;2023-04-09T08:34:00;17.23;;;10.77;;
12625;SDS011;6378;42.684;23.372;2023-04-09T08:36:25;19.63;;;13.37;;
12625;SDS011;6378;42.684;23.372;2023-04-09T08:38:51;14.87;;;10.87;;
12625;SDS011;6378;42.684;23.372;2023-04-09T08:41:20;15.10;;;9.87;;
12625;SDS011;6378;42.684;23.372;2023-04-09T08:43:49;19.00;;;11.70;;
12625;SDS011;6378;42.684;23.372;2023-04-09T08:46:16;17.93;;;11.93;;
12625;SDS011;6378;42.684;23.372;2023-04-09T08:48:46;19.00;;;12.40;;
12625;SDS011;6378;42.684;23.372;2023-04-09T08:51:13;15.27;;;10.57;;
12625;SDS011;6378;42.684;23.372;2023-04-09T08:53:41;17.93;;;11.57;;
12625;SDS011;6378;42.684;23.372;2023-04-09T08:56:09;18.37;;;11.53;;
12625;SDS011;6378;42.684;23.372;2023-04-09T08:58:35;16.73;;;11.80;;
12625;SDS011;6378;42.684;23.372;2023-04-09T09:01:01;15.67;;;10.67;;
12625;SDS011;6378;42.684;23.372;2023-04-09T09:03:26;15.90;;;10.70;;
12625;SDS011;6378;42.684;23.372;2023-04-09T09:05:51;17.83;;;12.10;;
12625;SDS011;6378;42.684;23.372;2023-04-09T09:08:23;18.33;;;12.67;;
12625;SDS011;6378;42.684;23.372;2023-04-09T09:10:50;15.23;;;10.40;;
12625;SDS011;6378;42.684;23.372;2023-04-09T09:13:20;20.30;;;13.53;;
12625;SDS011;6378;42.684;23.372;2023-04-09T09:15:48;16.03;;;11.83;;
12625;SDS011;6378;42.684;23.372;2023-04-09T09:18:38;13.80;;;10.27;;
12625;SDS011;6378;42.684;23.372;2023-04-09T09:21:15;14.27;;;10.60;;
12625;SDS011;6378;42.684;23.372;2023-04-09T09:23:42;12.27;;;9.63;;
12625;SDS011;6378;42.684;23.372;2023-04-09T09:26:14;19.80;;;14.53;;
12625;SDS011;6378;42.684;23.372;2023-04-09T09:28:42;15.83;;;11.20;;
12625;SDS011;6378;42.684;23.372;2023-04-09T09:31:09;16.40;;;11.27;;
12625;SDS011;6378;42.684;23.372;2023-04-09T09:33:36;17.23;;;12.37;;
12625;SDS011;6378;42.684;23.372;2023-04-09T09:36:02;17.30;;;12.23;;
12625;SDS011;6378;42.684;23.372;2023-04-09T09:38:28;16.42;;;12.20;;
12625;SDS011;6378;42.684;23.372;2023-04-09T09:40:54;15.57;;;11.40;;
12625;SDS011;6378;42.684;23.372;2023-04-09T09:43:20;16.03;;;11.83;;
12625;SDS011;6378;42.684;23.372;2023-04-09T09:45:46;16.60;;;12.30;;
12625;SDS011;6378;42.684;23.372;2023-04-09T09:48:13;15.50;;;11.82;;
12625;SDS011;6378;42.684;23.372;2023-04-09T09:50:39;16.98;;;11.32;;
12625;SDS011;6378;42.684;23.372;2023-04-09T09:53:06;14.20;;;11.00;;
12625;SDS011;6378;42.684;23.372;2023-04-09T09:55:40;13.73;;;11.20;;
12625;SDS011;6378;42.684;23.372;2023-04-09T09:58:16;13.10;;;9.25;;
12625;SDS011;6378;42.684;23.372;2023-04-09T10:00:47;12.48;;;9.75;;
12625;SDS011;6378;42.684;23.372;2023-04-09T10:03:20;11.43;;;9.73;;
12625;SDS011;6378;42.684;23.372;2023-04-09T10:05:49;11.75;;;9.38;;
12625;SDS011;6378;42.684;23.372;2023-04-09T10:08:15;12.77;;;10.40;;
12625;SDS011;6378;42.684;23.372;2023-04-09T10:10:42;17.65;;;14.00;;
12625;SDS011;6378;42.684;23.372;2023-04-09T10:13:09;17.48;;;13.60;;
12625;SDS011;6378;42.684;23.372;2023-04-09T10:15:39;15.38;;;10.52;;
12625;SDS011;6378;42.684;23.372;2023-04-09T10:18:07;11.75;;;9.70;;
12625;SDS011;6378;42.684;23.372;2023-04-09T10:20:35;14.05;;;10.35;;
12625;SDS011;6378;42.684;23.372;2023-04-09T10:23:08;12.25;;;10.95;;
12625;SDS011;6378;42.684;23.372;2023-04-09T10:25:39;13.45;;;10.00;;
12625;SDS011;6378;42.684;23.372;2023-04-09T10:28:13;13.48;;;10.05;;
12625;SDS011;6378;42.684;23.372;2023-04-09T10:30:42;10.52;;;8.85;;
12625;SDS011;6378;42.684;23.372;2023-04-09T10:33:14;10.80;;;9.10;;
12625;SDS011;6378;42.684;23.372;2023-04-09T10:35:41;14.73;;;10.97;;
12625;SDS011;6378;42.684;23.372;2023-04-09T10:38:10;10.50;;;8.07;;
12625;SDS011;6378;42.684;23.372;2023-04-09T10:40:56;13.77;;;9.30;;
12625;SDS011;6378;42.684;23.372;2023-04-09T10:43:21;9.65;;;8.30;;
12625;SDS011;6378;42.684;23.372;2023-04-09T10:45:47;10.85;;;9.50;;
12625;SDS011;6378;42.684;23.372;2023-04-09T10:48:18;10.00;;;8.00;;
12625;SDS011;6378;42.684;23.372;2023-04-09T10:50:44;11.50;;;8.88;;
12625;SDS011;6378;42.684;23.372;2023-04-09T10:53:23;10.50;;;8.15;;
12625;SDS011;6378;42.684;23.372;2023-04-09T10:55:51;11.07;;;8.70;;
12625;SDS011;6378;42.684;23.372;2023-04-09T10:58:18;11.80;;;8.70;;
12625;SDS011;6378;42.684;23.372;2023-04-09T11:00:48;12.57;;;9.10;;
12625;SDS011;6378;42.684;23.372;2023-04-09T11:05:47;12.45;;;8.95;;
12625;SDS011;6378;42.684;23.372;2023-04-09T11:08:16;10.02;;;8.63;;
12625;SDS011;6378;42.684;23.372;2023-04-09T11:10:42;14.48;;;10.27;;
12625;SDS011;6378;42.684;23.372;2023-04-09T11:13:10;9.95;;;8.30;;
12625;SDS011;6378;42.684;23.372;2023-04-09T11:15:37;11.35;;;8.65;;
12625;SDS011;6378;42.684;23.372;2023-04-09T11:18:03;8.70;;;7.80;;
12625;SDS011;6378;42.684;23.372;2023-04-09T11:20:32;11.68;;;9.00;;
12625;SDS011;6378;42.684;23.372;2023-04-09T11:22:58;10.65;;;9.10;;
12625;SDS011;6378;42.684;23.372;2023-04-09T11:25:26;9.57;;;8.48;;
12625;SDS011;6378;42.684;23.372;2023-04-09T11:27:52;11.07;;;8.73;;
12625;SDS011;6378;42.684;23.372;2023-04-09T11:30:18;10.15;;;9.00;;
12625;SDS011;6378;42.684;23.372;2023-04-09T11:32:44;12.70;;;9.13;;
12625;SDS011;6378;42.684;23.372;2023-04-09T11:35:14;9.38;;;8.32;;
12625;SDS011;6378;42.684;23.372;2023-04-09T11:37:45;12.30;;;8.75;;
12625;SDS011;6378;42.684;23.372;2023-04-09T11:42:48;11.43;;;8.80;;
12625;SDS011;6378;42.684;23.372;2023-04-09T11:45:15;10.40;;;8.50;;
12625;SDS011;6378;42.684;23.372;2023-04-09T11:47:41;9.18;;;7.70;;
12625;SDS011;6378;42.684;23.372;2023-04-09T11:50:08;7.78;;;6.97;;
12625;SDS011;6378;42.684;23.372;2023-04-09T11:52:36;8.13;;;7.13;;
12625;SDS011;6378;42.684;23.372;2023-04-09T11:55:02;6.10;;;5.38;;
12625;SDS011;6378;42.684;23.372;2023-04-09T11:57:41;6.25;;;5.65;;
12625;SDS011;6378;42.684;23.372;2023-04-09T12:00:09;5.32;;;4.82;;
12625;SDS011;6378;42.684;23.372;2023-04-09T12:02:37;7.65;;;6.40;;
12625;SDS011;6378;42.684;23.372;2023-04-09T12:05:04;6.72;;;5.93;;
12625;SDS011;6378;42.684;23.372;2023-04-09T12:07:34;7.13;;;5.93;;
12625;SDS011;6378;42.684;23.372;2023-04-09T12:10:08;6.60;;;5.72;;
12625;SDS011;6378;42.684;23.372;2023-04-09T12:12:44;5.78;;;5.25;;
12625;SDS011;6378;42.684;23.372;2023-04-09T12:15:12;5.65;;;4.50;;
12625;SDS011;6378;42.684;23.372;2023-04-09T12:17:45;7.30;;;5.50;;
12625;SDS011;6378;42.684;23.372;2023-04-09T12:20:12;5.80;;;5.30;;
12625;SDS011;6378;42.684;23.372;2023-04-09T12:22:38;7.35;;;6.45;;
12625;SDS011;6378;42.684;23.372;2023-04-09T12:25:05;6.18;;;5.45;;
12625;SDS011;6378;42.684;23.372;2023-04-09T12:27:32;6.50;;;5.80;;
12625;SDS011;6378;42.684;23.372;2023-04-09T12:29:57;6.15;;;5.55;;
12625;SDS011;6378;42.684;23.372;2023-04-09T12:32:23;6.93;;;5.60;;
12625;SDS011;6378;42.684;23.372;2023-04-09T12:34:48;8.30;;;5.68;;
12625;SDS011;6378;42.684;23.372;2023-04-09T12:37:14;6.70;;;5.97;;
12625;SDS011;6378;42.684;23.372;2023-04-09T12:39:39;6.78;;;5.97;;
12625;SDS011;6378;42.684;23.372;2023-04-09T12:42:05;8.40;;;6.68;;
12625;SDS011;6378;42.684;23.372;2023-04-09T12:44:30;7.63;;;6.75;;
12625;SDS011;6378;42.684;23.372;2023-04-09T12:46:57;8.18;;;7.28;;
12625;SDS011;6378;42.684;23.372;2023-04-09T12:49:22;7.32;;;6.53;;
12625;SDS011;6378;42.684;23.372;2023-04-09T12:51:48;7.65;;;6.82;;
12625;SDS011;6378;42.684;23.372;2023-04-09T12:54:15;8.88;;;7.63;;
12625;SDS011;6378;42.684;23.372;2023-04-09T12:56:40;11.13;;;8.18;;
12625;SDS011;6378;42.684;23.372;2023-04-09T12:59:06;7.18;;;6.47;;
12625;SDS011;6378;42.684;23.372;2023-04-09T13:01:31;9.48;;;7.07;;
12625;SDS011;6378;42.684;23.372;2023-04-09T13:03:57;8.55;;;6.85;;
12625;SDS011;6378;42.684;23.372;2023-04-09T13:06:22;10.55;;;7.60;;
12625;SDS011;6378;42.684;23.372;2023-04-09T13:08:48;8.07;;;6.78;;
12625;SDS011;6378;42.684;23.372;2023-04-09T13:11:13;8.10;;;7.30;;
12625;SDS011;6378;42.684;23.372;2023-04-09T13:13:38;7.80;;;7.00;;
12625;SDS011;6378;42.684;23.372;2023-04-09T13:16:04;8.55;;;7.50;;
12625;SDS011;6378;42.684;23.372;2023-04-09T13:18:30;6.72;;;6.07;;
12625;SDS011;6378;42.684;23.372;2023-04-09T13:20:55;6.18;;;5.57;;
12625;SDS011;6378;42.684;23.372;2023-04-09T13:23:21;7.13;;;6.30;;
12625;SDS011;6378;42.684;23.372;2023-04-09T13:25:46;8.35;;;7.03;;
12625;SDS011;6378;42.684;23.372;2023-04-09T13:28:12;9.68;;;7.15;;
12625;SDS011;6378;42.684;23.372;2023-04-09T13:30:37;11.02;;;8.50;;
12625;SDS011;6378;42.684;23.372;2023-04-09T13:33:03;11.60;;;8.68;;
12625;SDS011;6378;42.684;23.372;2023-04-09T13:35:29;6.68;;;5.97;;
12625;SDS011;6378;42.684;23.372;2023-04-09T13:37:54;7.93;;;7.03;;
12625;SDS011;6378;42.684;23.372;2023-04-09T13:40:20;6.95;;;6.25;;
12625;SDS011;6378;42.684;23.372;2023-04-09T13:42:45;7.80;;;6.72;;
12625;SDS011;6378;42.684;23.372;2023-04-09T13:45:10;7.75;;;6.95;;
12625;SDS011;6378;42.684;23.372;2023-04-09T13:47:36;8.88;;;7.60;;
12625;SDS011;6378;42.684;23.372;2023-04-09T13:50:01;10.55;;;7.82;;
12625;SDS011;6378;42.684;23.372;2023-04-09T13:52:27;7.18;;;6.18;;
12625;SDS011;6378;42.684;23.372;2023-04-09T13:54:53;7.25;;;6.55;;
12625;SDS011;6378;42.684;23.372;2023-04-09T13:57:18;9.60;;;6.88;;
12625;SDS011;6378;42.684;23.372;2023-04-09T13:59:43;8.27;;;6.75;;
12625;SDS011;6378;42.684;23.372;2023-04-09T14:02:09;10.50;;;6.75;;
12625;SDS011;6378;42.684;23.372;2023-04-09T14:04:34;7.32;;;6.43;;
12625;SDS011;6378;42.684;23.372;2023-04-09T14:07:00;8.35;;;7.00;;
12625;SDS011;6378;42.684;23.372;2023-04-09T14:09:25;9.13;;;7.30;;
12625;SDS011;6378;42.684;23.372;2023-04-09T14:11:51;8.65;;;7.75;;
12625;SDS011;6378;42.684;23.372;2023-04-09T14:14:18;11.18;;;8.10;;
12625;SDS011;6378;42.684;23.372;2023-04-09T14:16:44;8.98;;;7.40;;
12625;SDS011;6378;42.684;23.372;2023-04-09T14:19:10;9.35;;;7.78;;
12625;SDS011;6378;42.684;23.372;2023-04-09T14:21:36;12.65;;;9.02;;
12625;SDS011;6378;42.684;23.372;2023-04-09T14:24:01;9.80;;;7.82;;
12625;SDS011;6378;42.684;23.372;2023-04-09T14:26:27;10.27;;;8.35;;
12625;SDS011;6378;42.684;23.372;2023-04-09T14:28:53;9.00;;;7.30;;
12625;SDS011;6378;42.684;23.372;2023-04-09T14:31:18;11.60;;;8.18;;
12625;SDS011;6378;42.684;23.372;2023-04-09T14:33:45;8.65;;;7.03;;
12625;SDS011;6378;42.684;23.372;2023-04-09T14:36:13;9.10;;;7.32;;
12625;SDS011;6378;42.684;23.372;2023-04-09T14:38:38;9.98;;;7.25;;
12625;SDS011;6378;42.684;23.372;2023-04-09T14:41:04;8.70;;;6.88;;